Main page
METAR-TAF:

METAR-TAF

Airports :

Lydd Airport

Lydd, England

latitude: 50-57N, longitude: 000-56E, elevation: 3 m

Current weather observation

The report was made 22 minutes ago, at 02:20 UTC
Wind 8 kt from the Northwest
Temperature 13°C
Humidity 100%
Pressure 1014 hPa
Visibility 10 km or more

METAR: EGMD 190220Z AUTO 32008KT 9999 SCT007/// OVC011/// 13/13 Q1014

Time: 03:42 (02:42 UTC)

Forecast

The report was made 38 minutes ago, at 02:04 UTC
Forecast valid from 19 at 03 UTC to 19 at 12 UTC
Wind 7 kt from the Northwest
Visibility 10 km or more
Broken clouds at a height of 600 ft
Probability 30% :
Temporary
from 19 at 03 UTC to 19 at 06 UTC
Broken clouds at a height of 400 ft
Becoming
from 19 at 06 UTC to 19 at 09 UTC
Broken clouds at a height of 1800 ft

TAF: EGMD 190204Z 1903/1912 32007KT 9999 BKN006 PROB30 TEMPO 1903/1906 BKN004 BECMG 1906/1909 BKN018

Weather observations and forecasts of more than 4000 airports (METAR and TAF reports).

The available stations are represented by yellow and red dots on the map.

Hover mouse over dot to see the name of the station.

Then click to see weather observations and forecasts.

To change the map : click on the green buttons with a black cross to zoom in, on the green button with a dash to zoom out, or on the green arrows for adjacent maps.


METAR-TAF: